createdAt,value
2023-03-08T00:02:22.876Z,3.84
2023-03-08T00:04:49.402Z,3.81
2023-03-08T00:07:16.504Z,3.78
2023-03-08T00:09:43.059Z,3.81
2023-03-08T00:12:09.970Z,3.80
2023-03-08T00:14:36.640Z,3.71
2023-03-08T00:17:03.154Z,3.80
2023-03-08T00:19:29.887Z,3.69
2023-03-08T00:21:56.539Z,3.77
2023-03-08T00:24:23.672Z,3.69
2023-03-08T00:26:50.068Z,3.61
2023-03-08T00:29:16.601Z,3.63
2023-03-08T00:31:43.167Z,3.69
2023-03-08T00:34:09.705Z,3.71
2023-03-08T00:36:38.856Z,3.59
2023-03-08T00:39:05.602Z,3.56
2023-03-08T00:41:35.673Z,3.65
2023-03-08T00:44:02.433Z,3.67
2023-03-08T00:46:29.016Z,3.67
2023-03-08T00:48:55.749Z,3.57
2023-03-08T00:51:22.506Z,3.65
2023-03-08T00:53:52.832Z,3.59
2023-03-08T00:56:19.366Z,3.64
2023-03-08T00:58:46.667Z,3.75
2023-03-08T01:01:16.451Z,3.64
2023-03-08T01:03:43.043Z,3.71
2023-03-08T01:06:12.527Z,3.68
2023-03-08T01:08:41.736Z,3.58
2023-03-08T01:11:18.501Z,3.58
2023-03-08T01:13:47.799Z,3.38
2023-03-08T01:16:16.522Z,3.41
2023-03-08T01:18:43.175Z,3.26
2023-03-08T01:21:10.664Z,3.16
2023-03-08T01:23:37.142Z,3.26
2023-03-08T01:26:06.182Z,3.13
2023-03-08T01:28:33.700Z,3.16
2023-03-08T01:31:06.192Z,3.05
2023-03-08T01:33:33.613Z,3.19
2023-03-08T01:36:02.710Z,3.05
2023-03-08T01:38:29.205Z,2.89
2023-03-08T01:40:56.509Z,2.88
2023-03-08T01:43:25.452Z,2.86
2023-03-08T01:46:17.019Z,2.72
2023-03-08T01:48:50.624Z,2.85
2023-03-08T01:51:23.191Z,2.91
2023-03-08T01:53:50.489Z,2.86
2023-03-08T01:56:19.155Z,2.73
2023-03-08T01:58:49.829Z,2.78
2023-03-08T02:01:18.264Z,2.82
2023-03-08T02:03:45.370Z,2.70
2023-03-08T02:06:13.618Z,2.83
2023-03-08T02:08:41.562Z,2.84
2023-03-08T02:11:08.863Z,2.74
2023-03-08T02:13:35.574Z,2.74
2023-03-08T02:16:09.885Z,2.53
2023-03-08T02:18:48.208Z,2.64
2023-03-08T02:21:14.924Z,2.33
2023-03-08T02:23:42.110Z,2.45
2023-03-08T02:26:12.525Z,2.49
2023-03-08T02:28:40.372Z,2.55
2023-03-08T02:31:08.505Z,2.52
2023-03-08T02:33:36.980Z,2.45
2023-03-08T02:36:06.668Z,2.39
2023-03-08T02:38:33.582Z,2.46
2023-03-08T02:41:00.807Z,2.21
2023-03-08T02:43:27.393Z,2.38
2023-03-08T02:45:53.960Z,2.33
2023-03-08T02:48:20.596Z,2.44
2023-03-08T02:50:49.318Z,2.40
2023-03-08T02:53:18.787Z,2.29
2023-03-08T02:55:45.379Z,2.46
2023-03-08T02:58:13.623Z,2.36
2023-03-08T03:00:40.285Z,2.33
2023-03-08T03:03:06.800Z,2.18
2023-03-08T03:05:33.270Z,1.99
2023-03-08T03:08:02.615Z,2.22
2023-03-08T03:10:29.893Z,2.12
2023-03-08T03:12:56.524Z,2.05
2023-03-08T03:15:27.761Z,2.02
2023-03-08T03:17:57.775Z,1.98
2023-03-08T03:20:24.273Z,2.08
2023-03-08T03:22:51.355Z,2.01
2023-03-08T03:25:21.399Z,2.11
2023-03-08T03:27:49.014Z,2.11
2023-03-08T03:30:16.421Z,2.16
2023-03-08T03:32:44.203Z,2.16
2023-03-08T03:35:12.226Z,2.11
2023-03-08T03:37:38.770Z,2.03
2023-03-08T03:40:07.384Z,2.08
2023-03-08T03:42:33.863Z,2.09
2023-03-08T03:45:07.150Z,2.07
2023-03-08T03:47:34.195Z,2.02
2023-03-08T03:50:06.498Z,1.68
2023-03-08T03:52:43.268Z,1.77
2023-03-08T03:55:09.904Z,1.70
2023-03-08T03:57:36.695Z,1.56
2023-03-08T04:00:04.849Z,1.55
2023-03-08T04:02:40.002Z,1.58
2023-03-08T04:05:10.925Z,1.59
2023-03-08T04:07:38.302Z,1.43
2023-03-08T04:10:07.168Z,1.51
2023-03-08T04:12:36.178Z,1.43
2023-03-08T04:15:03.122Z,1.55
2023-03-08T04:17:32.268Z,1.63
2023-03-08T04:19:58.827Z,1.67
2023-03-08T04:22:27.976Z,1.70
2023-03-08T04:25:02.484Z,1.68
2023-03-08T04:27:38.104Z,1.60
2023-03-08T04:30:05.714Z,1.54
2023-03-08T04:32:35.546Z,1.43
2023-03-08T04:35:02.577Z,1.43
2023-03-08T04:37:31.584Z,1.39
2023-03-08T04:40:08.577Z,1.55
2023-03-08T04:42:40.162Z,1.35
2023-03-08T04:45:09.950Z,1.60
2023-03-08T04:47:36.784Z,1.60
2023-03-08T04:50:04.111Z,1.63
2023-03-08T04:52:32.301Z,1.64
2023-03-08T04:54:58.827Z,1.66
2023-03-08T04:57:29.165Z,1.67
2023-03-08T04:59:58.756Z,1.71
2023-03-08T05:02:25.768Z,1.82
2023-03-08T05:04:52.308Z,1.82
2023-03-08T05:07:19.809Z,1.84
2023-03-08T05:09:48.932Z,1.71
2023-03-08T05:12:15.379Z,1.84
2023-03-08T05:14:49.727Z,1.93
2023-03-08T05:17:16.244Z,1.93
2023-03-08T05:19:42.723Z,1.88
2023-03-08T05:22:10.479Z,1.93
2023-03-08T05:24:42.646Z,1.93
2023-03-08T05:27:12.144Z,2.03
2023-03-08T05:29:38.859Z,2.03
2023-03-08T05:32:06.591Z,1.89
2023-03-08T05:34:34.066Z,1.88
2023-03-08T05:37:02.197Z,1.93
2023-03-08T05:39:30.784Z,1.94
2023-03-08T05:42:03.157Z,1.91
2023-03-08T05:44:37.607Z,1.96
2023-03-08T05:47:05.131Z,1.93
2023-03-08T05:49:31.544Z,2.03
2023-03-08T05:51:58.888Z,2.02
2023-03-08T05:54:27.192Z,1.99
2023-03-08T05:56:57.412Z,1.98
2023-03-08T05:59:26.032Z,2.02
2023-03-08T06:01:55.001Z,2.17
2023-03-08T06:04:30.401Z,2.27
2023-03-08T06:06:56.858Z,2.26
2023-03-08T06:09:28.688Z,2.31
2023-03-08T06:11:55.310Z,2.30
2023-03-08T06:14:23.034Z,2.35
2023-03-08T06:16:50.606Z,2.42
2023-03-08T06:19:20.326Z,2.39
2023-03-08T06:21:49.774Z,2.50
2023-03-08T06:24:16.443Z,2.61
2023-03-08T06:26:42.918Z,2.70
2023-03-08T06:29:09.827Z,2.85
2023-03-08T06:31:37.012Z,3.00
2023-03-08T06:34:05.443Z,3.13
2023-03-08T06:36:32.701Z,3.11
2023-03-08T06:39:00.225Z,3.16
2023-03-08T06:41:26.697Z,3.26
2023-03-08T06:43:56.179Z,3.29
2023-03-08T06:46:22.645Z,3.32
2023-03-08T06:48:49.527Z,3.45
2023-03-08T06:51:17.678Z,3.40
2023-03-08T06:53:46.054Z,3.39
2023-03-08T06:56:16.159Z,3.39
2023-03-08T06:58:43.280Z,3.36
2023-03-08T07:01:10.685Z,3.47
2023-03-08T07:03:37.776Z,3.51
2023-03-08T07:06:06.156Z,3.52
2023-03-08T07:08:36.545Z,3.56
2023-03-08T07:11:09.771Z,3.60
2023-03-08T07:13:36.896Z,3.66
2023-03-08T07:16:06.833Z,3.66
2023-03-08T07:18:33.389Z,3.78
2023-03-08T07:20:59.838Z,3.78
2023-03-08T07:23:26.208Z,3.93
2023-03-08T07:25:52.642Z,4.02
2023-03-08T07:28:20.733Z,4.07
2023-03-08T07:30:48.202Z,4.13
2023-03-08T07:33:15.410Z,4.14
2023-03-08T07:35:41.944Z,4.17
2023-03-08T07:38:08.517Z,4.26
2023-03-08T07:40:34.978Z,4.32
2023-03-08T07:43:01.449Z,4.32
2023-03-08T07:45:37.558Z,4.43
2023-03-08T07:48:04.288Z,4.61
2023-03-08T07:50:30.746Z,4.77
2023-03-08T07:52:58.744Z,4.97
2023-03-08T07:55:26.804Z,5.12
2023-03-08T07:57:53.321Z,5.16
2023-03-08T08:00:20.771Z,5.39
2023-03-08T08:02:48.178Z,5.56
2023-03-08T08:05:14.888Z,5.70
2023-03-08T08:07:41.379Z,5.92
2023-03-08T08:10:09.157Z,7.40
2023-03-08T08:12:35.634Z,7.95
2023-03-08T08:15:02.039Z,8.16
2023-03-08T08:17:28.906Z,8.54
2023-03-08T08:19:56.160Z,8.34
2023-03-08T08:22:22.662Z,7.79
2023-03-08T08:24:49.090Z,8.04
2023-03-08T08:27:15.497Z,8.08
2023-03-08T08:29:45.434Z,7.91
2023-03-08T08:32:11.882Z,7.76
2023-03-08T08:34:38.300Z,7.58
2023-03-08T08:37:05.386Z,7.63
2023-03-08T08:39:32.003Z,7.82
2023-03-08T08:41:58.535Z,7.84
2023-03-08T08:44:25.072Z,8.00
2023-03-08T08:46:51.552Z,8.14
2023-03-08T08:49:18.128Z,7.74
2023-03-08T08:51:44.541Z,7.91
2023-03-08T08:54:11.639Z,7.94
2023-03-08T08:56:43.193Z,7.98
2023-03-08T08:59:11.268Z,8.03
2023-03-08T09:01:42.716Z,8.47
2023-03-08T09:04:09.661Z,8.35
2023-03-08T09:06:36.597Z,8.57
2023-03-08T09:09:04.282Z,8.88
2023-03-08T09:11:33.526Z,8.08
2023-03-08T09:14:03.061Z,7.87
2023-03-08T09:16:31.206Z,8.32
2023-03-08T09:18:59.803Z,7.92
2023-03-08T09:21:27.454Z,8.24
2023-03-08T09:23:54.589Z,7.97
2023-03-08T09:26:21.312Z,7.94
2023-03-08T09:28:48.433Z,7.47
2023-03-08T09:31:17.084Z,7.23
2023-03-08T09:33:45.311Z,7.21
2023-03-08T09:36:12.401Z,7.12
2023-03-08T09:38:39.440Z,6.92
2023-03-08T09:41:21.104Z,6.95
2023-03-08T09:44:13.478Z,7.15
2023-03-08T09:46:45.796Z,7.53
2023-03-08T09:49:17.269Z,7.45
2023-03-08T09:51:50.504Z,7.72
2023-03-08T09:54:19.890Z,7.64
2023-03-08T09:56:48.746Z,7.71
2023-03-08T09:59:20.927Z,7.75
2023-03-08T10:01:55.698Z,8.03
2023-03-08T10:04:44.183Z,8.57
2023-03-08T10:07:20.960Z,9.01
2023-03-08T10:09:55.499Z,9.05
2023-03-08T10:12:29.531Z,8.72
2023-03-08T10:15:02.988Z,8.27
2023-03-08T10:17:39.101Z,7.90
2023-03-08T10:20:16.647Z,7.70
2023-03-08T10:22:43.993Z,7.67
2023-03-08T10:25:21.387Z,7.72
2023-03-08T10:27:51.119Z,7.78
2023-03-08T10:30:21.452Z,7.78
2023-03-08T10:32:50.327Z,7.78
2023-03-08T10:35:17.962Z,7.74
2023-03-08T10:37:50.389Z,7.78
2023-03-08T10:40:20.590Z,7.82
2023-03-08T10:42:52.619Z,7.85
2023-03-08T10:45:21.744Z,7.93
2023-03-08T10:47:55.010Z,7.93
2023-03-08T10:50:25.491Z,8.05
2023-03-08T10:52:51.977Z,8.04
2023-03-08T10:55:20.246Z,8.03
2023-03-08T10:57:52.408Z,7.95
2023-03-08T11:00:31.400Z,7.95
2023-03-08T11:03:12.868Z,7.78
2023-03-08T11:05:39.696Z,7.57
2023-03-08T11:08:18.090Z,7.31
2023-03-08T11:10:44.556Z,7.17
2023-03-08T11:13:30.587Z,7.07
2023-03-08T11:16:08.131Z,6.95
2023-03-08T11:18:46.514Z,6.74
2023-03-08T11:21:20.618Z,6.69
2023-03-08T11:23:55.153Z,6.69
2023-03-08T11:26:32.836Z,6.65
2023-03-08T11:29:13.976Z,6.70
2023-03-08T11:31:51.965Z,6.73
2023-03-08T11:34:40.108Z,6.72
2023-03-08T11:37:14.817Z,6.72
2023-03-08T11:39:46.229Z,6.76
2023-03-08T11:42:21.855Z,6.86
2023-03-08T11:45:16.854Z,7.09
2023-03-08T11:48:24.423Z,7.24
2023-03-08T11:50:55.301Z,7.30
2023-03-08T11:53:32.180Z,7.48
2023-03-08T11:56:26.277Z,7.80
2023-03-08T11:58:58.981Z,8.01
2023-03-08T12:01:29.030Z,8.12
2023-03-08T12:04:02.430Z,8.19
2023-03-08T12:06:34.855Z,8.13
2023-03-08T12:09:07.221Z,8.11
2023-03-08T12:11:41.382Z,8.14
2023-03-08T12:14:16.905Z,8.17
2023-03-08T12:16:48.511Z,8.62
2023-03-08T12:19:24.670Z,8.74
2023-03-08T12:21:59.784Z,8.89
2023-03-08T12:24:41.724Z,8.99
2023-03-08T12:27:14.345Z,9.14
2023-03-08T12:29:46.091Z,9.27
2023-03-08T12:32:14.016Z,9.41
2023-03-08T12:34:43.192Z,9.51
2023-03-08T12:37:24.640Z,9.50
2023-03-08T12:39:57.525Z,9.57
2023-03-08T12:42:34.330Z,9.63
2023-03-08T12:45:27.616Z,9.64
2023-03-08T12:47:57.137Z,9.64
2023-03-08T12:50:24.805Z,9.77
2023-03-08T12:52:51.301Z,9.80
2023-03-08T12:55:20.710Z,9.85
2023-03-08T12:57:49.558Z,9.95
2023-03-08T13:00:29.095Z,10.01
2023-03-08T13:03:01.268Z,10.20
2023-03-08T13:05:34.479Z,10.37
2023-03-08T13:08:07.143Z,10.64
2023-03-08T13:10:35.926Z,10.71
2023-03-08T13:13:37.509Z,10.71
2023-03-08T13:16:17.332Z,10.86
2023-03-08T13:18:46.988Z,11.07
2023-03-08T13:21:28.168Z,11.17
2023-03-08T13:23:58.802Z,11.13
2023-03-08T13:26:50.593Z,11.26
2023-03-08T13:29:19.979Z,11.36
2023-03-08T13:31:47.853Z,11.34
2023-03-08T13:34:24.762Z,11.70
2023-03-08T13:36:51.888Z,11.60
2023-03-08T13:39:20.744Z,11.58
2023-03-08T13:41:48.346Z,11.48
2023-03-08T13:44:16.860Z,11.44
2023-03-08T13:46:44.151Z,11.42
2023-03-08T13:49:15.443Z,11.47
2023-03-08T13:51:44.002Z,11.53
2023-03-08T13:54:16.291Z,11.45
2023-03-08T13:56:43.025Z,11.62
2023-03-08T13:59:18.210Z,11.82
2023-03-08T14:01:49.085Z,11.79
2023-03-08T14:04:19.971Z,11.55
2023-03-08T14:06:51.487Z,11.76
2023-03-08T14:09:18.779Z,11.63
2023-03-08T14:11:46.720Z,11.56
2023-03-08T14:14:18.998Z,11.43
2023-03-08T14:16:46.578Z,11.45
2023-03-08T14:19:23.291Z,11.62
2023-03-08T14:21:52.452Z,11.53
2023-03-08T14:24:22.337Z,11.45
2023-03-08T14:27:00.025Z,11.27
2023-03-08T14:29:28.203Z,11.46
2023-03-08T14:32:05.101Z,11.44
2023-03-08T14:34:35.303Z,11.42
2023-03-08T14:37:05.972Z,11.47
2023-03-08T14:39:34.981Z,11.42
2023-03-08T14:42:11.047Z,11.46
2023-03-08T14:44:37.689Z,11.64
2023-03-08T14:47:19.770Z,11.74
2023-03-08T14:49:54.856Z,11.72
2023-03-08T14:52:21.579Z,11.72
2023-03-08T14:54:48.639Z,11.75
2023-03-08T14:57:18.181Z,11.81
2023-03-08T14:59:45.170Z,11.90
2023-03-08T15:02:12.938Z,12.08
2023-03-08T15:04:40.106Z,12.34
2023-03-08T15:07:07.454Z,12.45
2023-03-08T15:09:34.877Z,12.62
2023-03-08T15:12:02.160Z,12.48
2023-03-08T15:14:29.795Z,12.23
2023-03-08T15:16:57.577Z,12.14
2023-03-08T15:19:24.381Z,12.16
2023-03-08T15:21:50.816Z,12.10
2023-03-08T15:24:18.657Z,11.98
2023-03-08T15:26:45.710Z,11.94
2023-03-08T15:29:24.776Z,11.95
2023-03-08T15:31:51.322Z,12.05
2023-03-08T15:34:17.754Z,11.92
2023-03-08T15:36:44.210Z,11.85
2023-03-08T15:39:11.777Z,11.84
2023-03-08T15:41:38.319Z,11.85
2023-03-08T15:44:04.990Z,11.82
2023-03-08T15:46:32.192Z,11.92
2023-03-08T15:49:07.810Z,11.98
2023-03-08T15:51:35.569Z,12.04
2023-03-08T15:54:02.226Z,11.99
2023-03-08T15:56:28.744Z,12.03
2023-03-08T15:58:55.300Z,12.00
2023-03-08T16:01:22.324Z,12.07
2023-03-08T16:03:52.711Z,12.06
2023-03-08T16:06:19.293Z,12.00
2023-03-08T16:08:45.807Z,11.97
2023-03-08T16:11:14.721Z,11.87
2023-03-08T16:13:41.362Z,11.87
2023-03-08T16:16:08.623Z,11.80
2023-03-08T16:18:36.407Z,11.71
2023-03-08T16:21:08.049Z,11.70
2023-03-08T16:23:34.910Z,11.65
2023-03-08T16:26:14.756Z,11.61
2023-03-08T16:28:44.285Z,11.53
2023-03-08T16:31:10.974Z,11.50
2023-03-08T16:33:37.389Z,11.48
2023-03-08T16:36:04.071Z,11.43
2023-03-08T16:38:31.659Z,11.38
2023-03-08T16:41:11.559Z,11.31
2023-03-08T16:43:46.297Z,11.25
2023-03-08T16:46:14.935Z,11.09
2023-03-08T16:48:41.753Z,11.10
2023-03-08T16:51:13.802Z,11.03
2023-03-08T16:53:40.951Z,10.99
2023-03-08T16:56:08.481Z,11.08
2023-03-08T16:58:35.019Z,11.06
2023-03-08T17:01:01.576Z,11.01
2023-03-08T17:03:28.146Z,10.89
2023-03-08T17:05:54.700Z,10.82
2023-03-08T17:08:21.214Z,10.83
2023-03-08T17:10:48.279Z,11.01
2023-03-08T17:13:14.797Z,10.93
2023-03-08T17:15:42.780Z,10.87
2023-03-08T17:18:10.183Z,10.79
2023-03-08T17:20:38.726Z,10.88
2023-03-08T17:23:05.576Z,10.65
2023-03-08T17:25:34.296Z,10.74
2023-03-08T17:28:02.930Z,10.71
2023-03-08T17:30:29.619Z,10.91
2023-03-08T17:32:57.207Z,10.98
2023-03-08T17:35:24.341Z,11.10
2023-03-08T17:37:51.144Z,11.16
2023-03-08T17:40:20.519Z,11.02
2023-03-08T17:42:49.920Z,10.98
2023-03-08T17:45:18.075Z,10.97
2023-03-08T17:47:44.897Z,10.96
2023-03-08T17:50:15.159Z,10.85
2023-03-08T17:52:44.765Z,10.78
2023-03-08T17:55:11.296Z,10.70
2023-03-08T17:57:38.727Z,10.65
2023-03-08T18:00:10.138Z,10.64
2023-03-08T18:02:37.376Z,10.66
2023-03-08T18:05:05.878Z,10.65
2023-03-08T18:07:34.912Z,10.70
2023-03-08T18:10:01.431Z,10.68
2023-03-08T18:12:30.024Z,10.68
2023-03-08T18:14:56.476Z,10.78
2023-03-08T18:17:25.850Z,10.76
2023-03-08T18:19:55.556Z,10.72
2023-03-08T18:22:23.159Z,10.72
2023-03-08T18:24:49.733Z,10.65
2023-03-08T18:27:16.307Z,10.66
2023-03-08T18:29:43.045Z,10.68
2023-03-08T18:32:09.675Z,10.81
2023-03-08T18:34:37.160Z,10.94
2023-03-08T18:37:06.676Z,10.88
2023-03-08T18:39:33.434Z,10.86
2023-03-08T18:42:01.409Z,10.92
2023-03-08T18:44:28.226Z,10.96
2023-03-08T18:46:54.709Z,11.00
2023-03-08T18:49:21.538Z,11.07
2023-03-08T18:51:48.052Z,11.10
2023-03-08T18:54:19.641Z,11.23
2023-03-08T18:56:48.819Z,11.16
2023-03-08T18:59:15.649Z,11.05
2023-03-08T19:01:43.821Z,10.89
2023-03-08T19:04:10.528Z,10.75
2023-03-08T19:06:37.217Z,10.73
2023-03-08T19:09:08.087Z,10.51
2023-03-08T19:11:35.362Z,10.12
2023-03-08T19:14:01.756Z,9.97
2023-03-08T19:16:30.767Z,9.71
2023-03-08T19:18:59.000Z,9.39
2023-03-08T19:21:27.837Z,9.11
2023-03-08T19:23:54.529Z,8.87
2023-03-08T19:26:37.241Z,8.48
2023-03-08T19:29:07.189Z,8.62
2023-03-08T19:31:34.537Z,8.57
2023-03-08T19:34:04.084Z,8.49
2023-03-08T19:36:30.656Z,8.36
2023-03-08T19:38:57.785Z,8.20
2023-03-08T19:41:24.334Z,8.08
2023-03-08T19:43:50.847Z,8.03
2023-03-08T19:46:17.976Z,7.95
2023-03-08T19:48:45.196Z,7.88
2023-03-08T19:51:12.535Z,7.87
2023-03-08T19:53:39.041Z,7.71
2023-03-08T19:56:06.171Z,7.69
2023-03-08T19:58:32.605Z,7.56
2023-03-08T20:01:02.130Z,7.59
2023-03-08T20:03:29.664Z,7.55
2023-03-08T20:05:56.606Z,7.52
2023-03-08T20:08:23.624Z,7.49
2023-03-08T20:10:50.079Z,7.45
2023-03-08T20:13:16.497Z,7.42
2023-03-08T20:15:42.852Z,7.37
2023-03-08T20:18:09.423Z,7.26
2023-03-08T20:20:36.849Z,7.29
2023-03-08T20:23:04.259Z,7.27
2023-03-08T20:25:30.696Z,7.26
2023-03-08T20:27:57.168Z,7.19
2023-03-08T20:30:23.777Z,7.23
2023-03-08T20:32:50.331Z,7.19
2023-03-08T20:35:17.061Z,7.30
2023-03-08T20:37:44.209Z,7.26
2023-03-08T20:40:12.652Z,7.26
2023-03-08T20:42:39.182Z,7.25
2023-03-08T20:45:06.777Z,7.25
2023-03-08T20:47:33.236Z,7.24
2023-03-08T20:49:59.809Z,7.23
2023-03-08T20:52:26.531Z,7.17
2023-03-08T20:54:54.625Z,7.26
2023-03-08T20:57:24.433Z,7.31
2023-03-08T20:59:51.136Z,7.27
2023-03-08T21:02:17.871Z,7.28
2023-03-08T21:04:44.339Z,7.26
2023-03-08T21:07:10.758Z,7.28
2023-03-08T21:09:37.160Z,7.30
2023-03-08T21:12:04.429Z,7.31
2023-03-08T21:14:30.885Z,7.26
2023-03-08T21:16:57.365Z,7.26
2023-03-08T21:19:23.855Z,7.25
2023-03-08T21:21:50.709Z,7.28
2023-03-08T21:24:18.779Z,7.25
2023-03-08T21:26:45.680Z,7.24
2023-03-08T21:29:15.008Z,7.26
2023-03-08T21:31:43.160Z,7.26
2023-03-08T21:34:11.763Z,7.23
2023-03-08T21:36:39.102Z,7.21
2023-03-08T21:39:10.670Z,7.23
2023-03-08T21:41:39.352Z,7.24
2023-03-08T21:44:13.393Z,7.25
2023-03-08T21:46:41.217Z,7.25
2023-03-08T21:49:14.062Z,7.28
2023-03-08T21:51:40.446Z,7.32
2023-03-08T21:54:06.850Z,7.28
2023-03-08T21:56:35.592Z,7.37
2023-03-08T21:59:02.565Z,7.38
2023-03-08T22:01:30.693Z,7.43
2023-03-08T22:03:59.101Z,7.43
2023-03-08T22:06:26.127Z,7.45
2023-03-08T22:08:52.572Z,7.48
2023-03-08T22:11:19.781Z,7.46
2023-03-08T22:13:49.783Z,7.54
2023-03-08T22:16:16.221Z,7.63
2023-03-08T22:18:42.670Z,7.63
2023-03-08T22:21:09.715Z,7.69
2023-03-08T22:23:36.112Z,7.77
2023-03-08T22:26:06.209Z,7.81
2023-03-08T22:28:32.599Z,7.86
2023-03-08T22:30:58.990Z,7.92
2023-03-08T22:33:25.418Z,7.95
2023-03-08T22:35:51.818Z,7.95
2023-03-08T22:38:20.194Z,7.98
2023-03-08T22:40:46.655Z,8.02
2023-03-08T22:43:13.316Z,8.10
2023-03-08T22:45:39.710Z,8.13
2023-03-08T22:48:06.469Z,8.10
2023-03-08T22:50:32.863Z,8.14
2023-03-08T22:52:59.261Z,8.14
2023-03-08T22:55:26.388Z,8.12
2023-03-08T22:57:52.827Z,8.13
2023-03-08T23:00:19.935Z,8.13
2023-03-08T23:02:47.118Z,8.11
2023-03-08T23:05:15.343Z,8.18
2023-03-08T23:07:42.075Z,8.14
2023-03-08T23:10:10.614Z,8.13
2023-03-08T23:12:37.832Z,8.08
2023-03-08T23:15:05.705Z,8.07
2023-03-08T23:17:32.338Z,8.03
2023-03-08T23:19:58.742Z,8.08
2023-03-08T23:22:25.265Z,8.06
2023-03-08T23:24:51.794Z,8.12
2023-03-08T23:27:18.259Z,8.18
2023-03-08T23:29:45.366Z,8.17
2023-03-08T23:32:12.010Z,8.24
2023-03-08T23:34:38.531Z,8.44
2023-03-08T23:37:05.107Z,8.47
2023-03-08T23:39:33.167Z,8.62
2023-03-08T23:41:59.752Z,8.76
2023-03-08T23:44:26.481Z,8.77
2023-03-08T23:46:53.586Z,8.86
2023-03-08T23:49:20.041Z,8.91
2023-03-08T23:51:46.485Z,9.06
2023-03-08T23:54:12.964Z,9.15
2023-03-08T23:56:40.231Z,9.37
2023-03-08T23:59:10.176Z,9.42
